Home   Weather   Germany   Bautzen   Past weeks
Flag for Germany

Past Weather in Bautzen, Saxony, Germany — Yesterday and Last 2 Weeks

Currently: 41 °F. Sunny. (Weather station: Dresden-Klotzsche, Germany). See more current weather

Past Weather in Bautzen — Graph

°F

Bautzen Temperature Yesterday

Maximum temperature yesterday: 54 °F (at 1:20 pm)
Minimum temperature yesterday: 30 °F (at 4:20 am)
Average temperature yesterday: 39 °F

High & Low Weather Summary for the Past Weeks

 TemperatureHumidityPressure
High68 °F (Feb 25, 2:20 pm)100% (Feb 23, 4:20 am)30.66 "Hg (Feb 23, 4:20 am)
Low30 °F (Mar 2, 2:50 am)37% (Feb 25, 3:50 pm)29.89 "Hg (Feb 18, 11:20 pm)
Average42 °F80%30.32 "Hg
* Reported Feb 17 7:20 am — Mar 4 7:20 am, Bautzen. Weather by CustomWeather, © 2021

Note: Actual official high and low records may vary slightly from our data, if they occured in-between our weather recording intervals... More about our weather records

Bautzen Weather History for the Previous 24 Hours

Scroll right to see more
 ConditionsComfort  
Time TempWeatherWind HumidityBarometerVisibility
7:20 am
Thu, Mar 4
39 °FSunny.6 mph81%30.07 "Hg10 mi
6:50 am36 °FClear.9 mph87%30.07 "Hg6 mi
6:20 am37 °FClear.8 mph87%30.07 "Hg10 mi
5:50 am36 °FClear.7 mph87%30.09 "Hg10 mi
5:20 am37 °FClear.7 mph81%30.09 "Hg10 mi
4:50 am36 °FClear.7 mph87%30.09 "Hg10 mi
4:20 am34 °FClear.7 mph93%30.12 "Hg10 mi
3:50 am34 °FClear.7 mph93%30.12 "Hg10 mi
3:20 am36 °FClear.7 mph87%30.12 "Hg10 mi
2:50 am36 °FClear.7 mph87%30.12 "Hg10 mi
2:20 am36 °FClear.8 mph87%30.15 "Hg10 mi
1:50 am36 °FClear.8 mph81%30.15 "Hg10 mi
1:20 am36 °FClear.8 mph81%30.15 "Hg10 mi
12:50 am36 °FClear.10 mph81%30.15 "Hg10 mi
12:20 am36 °FClear.10 mph81%30.15 "Hg10 mi
11:50 pm
Wed, Mar 3
36 °FClear.10 mph81%30.18 "Hg10 mi
11:20 pm36 °FClear.8 mph81%30.18 "Hg10 mi
10:50 pm36 °FClear.10 mph81%30.18 "Hg10 mi
10:20 pm36 °FClear.10 mph81%30.18 "Hg10 mi
9:50 pm36 °FClear.10 mph81%30.21 "Hg10 mi
9:20 pm36 °FClear.8 mph81%30.21 "Hg10 mi
8:50 pm36 °FClear.5 mph87%30.21 "Hg10 mi
8:20 pm36 °FClear.8 mph87%30.21 "Hg10 mi
7:50 pm37 °FPassing clouds.5 mph81%30.21 "HgN/A
7:20 pm37 °FClear.6 mph81%30.24 "Hg10 mi
6:50 pm39 °FClear.6 mph75%30.24 "Hg10 mi
6:20 pm41 °FClear.7 mph70%30.24 "Hg10 mi
5:50 pm43 °FClear.8 mph66%30.24 "Hg10 mi
5:20 pm43 °FSunny.8 mph71%30.24 "Hg10 mi
4:50 pm45 °FSunny.8 mph66%30.27 "Hg10 mi
4:20 pm46 °FSunny.8 mph62%30.27 "Hg10 mi
3:50 pm48 °FSunny.6 mph58%30.27 "Hg10 mi
3:20 pm50 °FSunny.7 mph58%30.30 "Hg10 mi
2:50 pm50 °FSunny.7 mph58%30.30 "Hg10 mi
2:20 pm50 °FSunny.8 mph58%30.30 "Hg10 mi
1:50 pm52 °FSunny.7 mph54%30.30 "Hg10 mi
1:20 pm54 °FPassing clouds.6 mph51%30.33 "HgN/A
12:50 pm52 °FSunny.6 mph50%30.33 "Hg10 mi
12:20 pm52 °FSunny.8 mph50%30.36 "Hg10 mi
11:50 am52 °FPassing clouds.7 mph50%30.36 "HgN/A
11:20 am48 °FSunny.8 mph54%30.36 "Hg10 mi
10:50 am46 °FSunny.8 mph57%30.36 "Hg10 mi
10:20 am43 °FSunny.7 mph66%30.36 "Hg10 mi
9:50 am41 °FSunny.9 mph70%30.36 "Hg10 mi
9:20 am37 °FPassing clouds.7 mph75%30.39 "HgN/A
8:50 am36 °FPassing clouds.7 mph81%30.39 "HgN/A
8:20 am32 °FPassing clouds.7 mph93%30.39 "HgN/A
Weather by CustomWeather, © 2021

See weather overview